sensor_id;sensor_type;location;lat;lon;timestamp;pressure;altitude;pressure_sealevel;temperature;humidity
69219;BME280;56232;53.384;-2.732;2023-12-04T00:00:56;99901.70;;;1.84;49.38
69219;BME280;56232;53.384;-2.732;2023-12-04T00:03:22;99898.03;;;1.25;49.07
69219;BME280;56232;53.384;-2.732;2023-12-04T00:05:48;99895.13;;;1.12;49.28
69219;BME280;56232;53.384;-2.732;2023-12-04T00:08:14;99891.98;;;1.15;49.65
69219;BME280;56232;53.384;-2.732;2023-12-04T00:10:40;99889.64;;;1.82;49.35
69219;BME280;56232;53.384;-2.732;2023-12-04T00:13:05;99884.74;;;1.30;49.27
69219;BME280;56232;53.384;-2.732;2023-12-04T00:15:30;99884.26;;;1.71;49.42
69219;BME280;56232;53.384;-2.732;2023-12-04T00:17:56;99881.86;;;1.67;49.75
69219;BME280;56232;53.384;-2.732;2023-12-04T00:20:21;99871.52;;;1.89;49.73
69219;BME280;56232;53.384;-2.732;2023-12-04T00:22:47;99868.09;;;1.35;49.37
69219;BME280;56232;53.384;-2.732;2023-12-04T00:25:12;99865.04;;;1.24;49.58
69219;BME280;56232;53.384;-2.732;2023-12-04T00:27:37;99861.49;;;1.63;49.48
69219;BME280;56232;53.384;-2.732;2023-12-04T00:30:03;99856.08;;;1.05;49.70
69219;BME280;56232;53.384;-2.732;2023-12-04T00:32:27;99852.31;;;0.90;49.83
69219;BME280;56232;53.384;-2.732;2023-12-04T00:34:53;99840.58;;;1.56;49.52
69219;BME280;56232;53.384;-2.732;2023-12-04T00:37:23;99836.59;;;0.91;49.69
69219;BME280;56232;53.384;-2.732;2023-12-04T00:39:44;99833.78;;;1.47;49.55
69219;BME280;56232;53.384;-2.732;2023-12-04T00:42:10;99831.09;;;1.24;49.96
69219;BME280;56232;53.384;-2.732;2023-12-04T00:44:35;99823.60;;;1.39;49.89
69219;BME280;56232;53.384;-2.732;2023-12-04T00:47:00;99818.97;;;0.75;50.18
69219;BME280;56232;53.384;-2.732;2023-12-04T00:49:26;99817.20;;;1.98;49.87
69219;BME280;56232;53.384;-2.732;2023-12-04T00:51:51;99808.85;;;0.95;49.76
69219;BME280;56232;53.384;-2.732;2023-12-04T00:54:18;99805.01;;;0.61;49.50
69219;BME280;56232;53.384;-2.732;2023-12-04T00:56:43;99797.60;;;1.51;49.51
69219;BME280;56232;53.384;-2.732;2023-12-04T00:59:09;99793.64;;;0.19;50.10
69219;BME280;56232;53.384;-2.732;2023-12-04T01:01:35;99786.45;;;0.83;50.21
69219;BME280;56232;53.384;-2.732;2023-12-04T01:03:59;99786.39;;;0.85;49.77
69219;BME280;56232;53.384;-2.732;2023-12-04T01:06:25;99782.17;;;0.72;49.95
69219;BME280;56232;53.384;-2.732;2023-12-04T01:08:50;99779.25;;;1.44;49.71
69219;BME280;56232;53.384;-2.732;2023-12-04T01:11:16;99774.25;;;0.84;49.99
69219;BME280;56232;53.384;-2.732;2023-12-04T01:13:40;99771.29;;;0.93;49.92
69219;BME280;56232;53.384;-2.732;2023-12-04T01:16:07;99766.49;;;1.07;49.83
69219;BME280;56232;53.384;-2.732;2023-12-04T01:18:31;99762.16;;;0.99;49.92
69219;BME280;56232;53.384;-2.732;2023-12-04T01:20:57;99753.07;;;1.17;49.45
69219;BME280;56232;53.384;-2.732;2023-12-04T01:23:22;99753.95;;;1.51;49.84
69219;BME280;56232;53.384;-2.732;2023-12-04T01:25:47;99752.69;;;1.41;49.95
69219;BME280;56232;53.384;-2.732;2023-12-04T01:28:13;99747.11;;;1.41;50.19
69219;BME280;56232;53.384;-2.732;2023-12-04T01:30:39;99743.13;;;1.00;50.07
69219;BME280;56232;53.384;-2.732;2023-12-04T01:33:04;99738.40;;;0.92;49.94
69219;BME280;56232;53.384;-2.732;2023-12-04T01:35:30;99733.55;;;1.02;50.05
69219;BME280;56232;53.384;-2.732;2023-12-04T01:37:56;99730.35;;;1.31;49.61
69219;BME280;56232;53.384;-2.732;2023-12-04T01:40:22;99730.77;;;1.83;49.77
69219;BME280;56232;53.384;-2.732;2023-12-04T01:42:47;99728.51;;;1.85;49.68
69219;BME280;56232;53.384;-2.732;2023-12-04T01:45:12;99726.19;;;1.16;49.64
69219;BME280;56232;53.384;-2.732;2023-12-04T01:47:38;99718.23;;;1.24;49.77
69219;BME280;56232;53.384;-2.732;2023-12-04T01:50:05;99719.47;;;1.86;49.45
69219;BME280;56232;53.384;-2.732;2023-12-04T01:52:29;99715.83;;;1.72;49.85
69219;BME280;56232;53.384;-2.732;2023-12-04T01:54:55;99712.96;;;1.19;49.84
69219;BME280;56232;53.384;-2.732;2023-12-04T01:57:20;99717.45;;;1.37;49.75
69219;BME280;56232;53.384;-2.732;2023-12-04T01:59:46;99718.32;;;1.18;49.80
69219;BME280;56232;53.384;-2.732;2023-12-04T02:02:12;99717.35;;;0.76;49.74
69219;BME280;56232;53.384;-2.732;2023-12-04T02:04:38;99717.46;;;0.58;49.77
69219;BME280;56232;53.384;-2.732;2023-12-04T02:07:03;99712.39;;;1.15;50.13
69219;BME280;56232;53.384;-2.732;2023-12-04T02:09:29;99709.65;;;1.42;49.32
69219;BME280;56232;53.384;-2.732;2023-12-04T02:11:54;99702.05;;;1.37;49.70
69219;BME280;56232;53.384;-2.732;2023-12-04T02:14:20;99700.62;;;1.25;49.26
69219;BME280;56232;53.384;-2.732;2023-12-04T02:16:45;99699.47;;;0.67;49.49
69219;BME280;56232;53.384;-2.732;2023-12-04T02:19:12;99698.47;;;0.69;49.64
69219;BME280;56232;53.384;-2.732;2023-12-04T02:21:36;99696.65;;;1.30;49.97
69219;BME280;56232;53.384;-2.732;2023-12-04T02:24:02;99695.91;;;1.48;50.13
69219;BME280;56232;53.384;-2.732;2023-12-04T02:26:31;99693.62;;;1.05;49.42
69219;BME280;56232;53.384;-2.732;2023-12-04T02:28:58;99695.78;;;1.54;49.55
69219;BME280;56232;53.384;-2.732;2023-12-04T02:31:19;99692.20;;;1.45;49.63
69219;BME280;56232;53.384;-2.732;2023-12-04T02:33:43;99686.68;;;1.51;49.91
69219;BME280;56232;53.384;-2.732;2023-12-04T02:36:09;99687.25;;;1.56;49.36
69219;BME280;56232;53.384;-2.732;2023-12-04T02:38:34;99684.48;;;1.36;49.43
69219;BME280;56232;53.384;-2.732;2023-12-04T02:41:00;99679.28;;;0.88;49.34
69219;BME280;56232;53.384;-2.732;2023-12-04T02:43:25;99671.70;;;1.35;49.64
69219;BME280;56232;53.384;-2.732;2023-12-04T02:45:51;99675.74;;;1.29;49.18
69219;BME280;56232;53.384;-2.732;2023-12-04T02:48:17;99675.18;;;1.87;49.78
69219;BME280;56232;53.384;-2.732;2023-12-04T02:50:42;99673.21;;;1.21;49.78
69219;BME280;56232;53.384;-2.732;2023-12-04T02:53:07;99667.91;;;1.30;49.55
69219;BME280;56232;53.384;-2.732;2023-12-04T02:55:33;99666.16;;;0.87;49.84
69219;BME280;56232;53.384;-2.732;2023-12-04T02:57:59;99662.25;;;1.87;49.64
69219;BME280;56232;53.384;-2.732;2023-12-04T03:00:24;99661.10;;;1.82;50.19
69219;BME280;56232;53.384;-2.732;2023-12-04T03:02:50;99659.50;;;0.99;49.84
69219;BME280;56232;53.384;-2.732;2023-12-04T03:05:17;99661.34;;;1.02;50.08
69219;BME280;56232;53.384;-2.732;2023-12-04T03:07:42;99659.91;;;1.14;49.86
69219;BME280;56232;53.384;-2.732;2023-12-04T03:10:08;99659.22;;;1.87;49.01
69219;BME280;56232;53.384;-2.732;2023-12-04T03:12:34;99650.81;;;2.11;49.58
69219;BME280;56232;53.384;-2.732;2023-12-04T03:14:59;99647.92;;;1.46;49.61
69219;BME280;56232;53.384;-2.732;2023-12-04T03:17:25;99636.03;;;1.29;50.00
69219;BME280;56232;53.384;-2.732;2023-12-04T03:19:51;99634.41;;;1.38;50.19
69219;BME280;56232;53.384;-2.732;2023-12-04T03:22:18;99628.20;;;1.44;50.04
69219;BME280;56232;53.384;-2.732;2023-12-04T03:24:43;99626.73;;;1.04;49.78
69219;BME280;56232;53.384;-2.732;2023-12-04T03:27:08;99623.62;;;2.14;49.59
69219;BME280;56232;53.384;-2.732;2023-12-04T03:29:33;99620.16;;;1.97;49.37
69219;BME280;56232;53.384;-2.732;2023-12-04T03:31:59;99615.02;;;1.23;49.91
69219;BME280;56232;53.384;-2.732;2023-12-04T03:34:25;99612.81;;;0.75;50.16
69219;BME280;56232;53.384;-2.732;2023-12-04T03:36:51;99609.13;;;1.95;50.20
69219;BME280;56232;53.384;-2.732;2023-12-04T03:39:18;99603.63;;;1.58;50.24
69219;BME280;56232;53.384;-2.732;2023-12-04T03:41:43;99600.73;;;2.37;49.94
69219;BME280;56232;53.384;-2.732;2023-12-04T03:44:09;99592.22;;;1.80;49.85
69219;BME280;56232;53.384;-2.732;2023-12-04T03:46:34;99593.19;;;1.81;49.71
69219;BME280;56232;53.384;-2.732;2023-12-04T03:49:00;99585.84;;;1.39;49.07
69219;BME280;56232;53.384;-2.732;2023-12-04T03:51:26;99581.47;;;1.85;49.74
69219;BME280;56232;53.384;-2.732;2023-12-04T03:53:52;99577.48;;;1.72;50.08
69219;BME280;56232;53.384;-2.732;2023-12-04T03:56:19;99571.69;;;1.75;49.78
69219;BME280;56232;53.384;-2.732;2023-12-04T03:58:43;99569.91;;;1.80;49.96
69219;BME280;56232;53.384;-2.732;2023-12-04T04:01:09;99569.78;;;1.61;49.73
69219;BME280;56232;53.384;-2.732;2023-12-04T04:03:35;99569.24;;;1.57;50.12
69219;BME280;56232;53.384;-2.732;2023-12-04T04:06:01;99564.17;;;1.70;49.97
69219;BME280;56232;53.384;-2.732;2023-12-04T04:08:26;99562.50;;;2.28;49.60
69219;BME280;56232;53.384;-2.732;2023-12-04T04:10:52;99558.36;;;2.18;50.16
69219;BME280;56232;53.384;-2.732;2023-12-04T04:13:19;99556.51;;;1.94;50.02
69219;BME280;56232;53.384;-2.732;2023-12-04T04:15:44;99553.79;;;1.43;49.91
69219;BME280;56232;53.384;-2.732;2023-12-04T04:18:09;99549.52;;;2.05;49.86
69219;BME280;56232;53.384;-2.732;2023-12-04T04:20:35;99542.82;;;2.11;49.34
69219;BME280;56232;53.384;-2.732;2023-12-04T04:23:01;99543.20;;;2.10;49.89
69219;BME280;56232;53.384;-2.732;2023-12-04T04:25:27;99538.60;;;2.10;49.48
69219;BME280;56232;53.384;-2.732;2023-12-04T04:27:53;99539.27;;;1.99;50.08
69219;BME280;56232;53.384;-2.732;2023-12-04T04:30:19;99535.47;;;1.97;49.90
69219;BME280;56232;53.384;-2.732;2023-12-04T04:32:44;99529.88;;;1.54;50.36
69219;BME280;56232;53.384;-2.732;2023-12-04T04:35:10;99529.58;;;1.80;50.28
69219;BME280;56232;53.384;-2.732;2023-12-04T04:37:36;99522.61;;;2.48;49.62
69219;BME280;56232;53.384;-2.732;2023-12-04T04:40:02;99522.36;;;2.42;49.84
69219;BME280;56232;53.384;-2.732;2023-12-04T04:42:27;99517.60;;;2.59;49.07
69219;BME280;56232;53.384;-2.732;2023-12-04T04:44:53;99512.15;;;2.24;49.77
69219;BME280;56232;53.384;-2.732;2023-12-04T04:47:19;99510.09;;;2.25;49.94
69219;BME280;56232;53.384;-2.732;2023-12-04T04:49:45;99506.39;;;2.37;49.89
69219;BME280;56232;53.384;-2.732;2023-12-04T04:52:11;99504.86;;;1.80;50.05
69219;BME280;56232;53.384;-2.732;2023-12-04T04:54:36;99503.95;;;2.54;49.61
69219;BME280;56232;53.384;-2.732;2023-12-04T04:57:02;99502.12;;;1.33;49.56
69219;BME280;56232;53.384;-2.732;2023-12-04T04:59:28;99500.20;;;1.91;49.56
69219;BME280;56232;53.384;-2.732;2023-12-04T05:01:53;99498.26;;;2.23;49.78
69219;BME280;56232;53.384;-2.732;2023-12-04T05:04:19;99501.85;;;1.80;49.79
69219;BME280;56232;53.384;-2.732;2023-12-04T05:06:45;99499.33;;;2.27;49.92
69219;BME280;56232;53.384;-2.732;2023-12-04T05:09:11;99499.50;;;2.25;49.97
69219;BME280;56232;53.384;-2.732;2023-12-04T05:11:36;99499.65;;;2.43;49.38
69219;BME280;56232;53.384;-2.732;2023-12-04T05:14:02;99500.02;;;2.13;49.98
69219;BME280;56232;53.384;-2.732;2023-12-04T05:16:28;99498.70;;;2.13;50.40
69219;BME280;56232;53.384;-2.732;2023-12-04T05:18:53;99492.35;;;2.76;50.13
69219;BME280;56232;53.384;-2.732;2023-12-04T05:21:19;99495.64;;;2.49;50.07
69219;BME280;56232;53.384;-2.732;2023-12-04T05:23:45;99490.01;;;2.41;50.22
69219;BME280;56232;53.384;-2.732;2023-12-04T05:26:11;99489.11;;;2.68;49.74
69219;BME280;56232;53.384;-2.732;2023-12-04T05:28:37;99489.61;;;2.63;49.20
69219;BME280;56232;53.384;-2.732;2023-12-04T05:31:03;99491.41;;;2.35;50.19
69219;BME280;56232;53.384;-2.732;2023-12-04T05:33:28;99481.33;;;1.84;49.90
69219;BME280;56232;53.384;-2.732;2023-12-04T05:35:54;99480.03;;;2.23;49.97
69219;BME280;56232;53.384;-2.732;2023-12-04T05:38:20;99479.65;;;2.25;50.09
69219;BME280;56232;53.384;-2.732;2023-12-04T05:40:46;99478.16;;;2.31;49.72
69219;BME280;56232;53.384;-2.732;2023-12-04T05:43:11;99480.51;;;2.36;49.94
69219;BME280;56232;53.384;-2.732;2023-12-04T05:45:38;99481.26;;;2.45;49.77
69219;BME280;56232;53.384;-2.732;2023-12-04T05:48:03;99479.16;;;1.88;50.15
69219;BME280;56232;53.384;-2.732;2023-12-04T05:50:29;99476.52;;;2.02;50.17
69219;BME280;56232;53.384;-2.732;2023-12-04T05:52:54;99471.50;;;2.47;49.89
69219;BME280;56232;53.384;-2.732;2023-12-04T05:55:20;99470.12;;;2.52;49.94
69219;BME280;56232;53.384;-2.732;2023-12-04T05:57:46;99467.94;;;2.02;50.02
69219;BME280;56232;53.384;-2.732;2023-12-04T06:00:13;99465.15;;;2.51;50.10
69219;BME280;56232;53.384;-2.732;2023-12-04T06:02:37;99461.48;;;2.42;50.34
69219;BME280;56232;53.384;-2.732;2023-12-04T06:05:04;99460.08;;;2.54;49.77
69219;BME280;56232;53.384;-2.732;2023-12-04T06:07:29;99456.29;;;1.89;50.54
69219;BME280;56232;53.384;-2.732;2023-12-04T06:09:54;99453.37;;;2.64;50.42
69219;BME280;56232;53.384;-2.732;2023-12-04T06:12:20;99454.28;;;2.73;50.26
69219;BME280;56232;53.384;-2.732;2023-12-04T06:14:46;99454.27;;;2.87;50.10
69219;BME280;56232;53.384;-2.732;2023-12-04T06:17:12;99450.61;;;2.19;49.99
69219;BME280;56232;53.384;-2.732;2023-12-04T06:19:38;99449.91;;;2.90;50.31
69219;BME280;56232;53.384;-2.732;2023-12-04T06:22:03;99447.29;;;1.97;49.89
69219;BME280;56232;53.384;-2.732;2023-12-04T06:24:30;99446.39;;;1.93;50.08
69219;BME280;56232;53.384;-2.732;2023-12-04T06:26:55;99443.71;;;3.15;49.59
69219;BME280;56232;53.384;-2.732;2023-12-04T06:29:21;99436.84;;;2.50;49.61
69219;BME280;56232;53.384;-2.732;2023-12-04T06:31:47;99437.10;;;2.82;49.85
69219;BME280;56232;53.384;-2.732;2023-12-04T06:34:12;99433.27;;;2.85;50.10
69219;BME280;56232;53.384;-2.732;2023-12-04T06:36:38;99430.20;;;1.87;50.09
69219;BME280;56232;53.384;-2.732;2023-12-04T06:39:03;99427.80;;;2.93;49.64
69219;BME280;56232;53.384;-2.732;2023-12-04T06:41:29;99424.30;;;2.83;50.29
69219;BME280;56232;53.384;-2.732;2023-12-04T06:43:55;99422.51;;;2.48;50.24
69219;BME280;56232;53.384;-2.732;2023-12-04T06:46:21;99423.36;;;3.19;50.40
69219;BME280;56232;53.384;-2.732;2023-12-04T06:48:48;99423.65;;;2.18;49.93
69219;BME280;56232;53.384;-2.732;2023-12-04T06:51:12;99424.68;;;2.44;49.64
69219;BME280;56232;53.384;-2.732;2023-12-04T06:53:37;99425.91;;;2.36;49.92
69219;BME280;56232;53.384;-2.732;2023-12-04T06:56:04;99424.50;;;2.26;49.55
69219;BME280;56232;53.384;-2.732;2023-12-04T06:58:28;99423.73;;;2.26;49.96
69219;BME280;56232;53.384;-2.732;2023-12-04T07:00:54;99423.65;;;2.38;49.69
69219;BME280;56232;53.384;-2.732;2023-12-04T07:03:20;99424.47;;;3.01;49.94
69219;BME280;56232;53.384;-2.732;2023-12-04T07:05:46;99422.19;;;3.20;49.85
69219;BME280;56232;53.384;-2.732;2023-12-04T07:08:11;99423.72;;;2.66;49.96
69219;BME280;56232;53.384;-2.732;2023-12-04T07:10:37;99419.68;;;2.83;49.45
69219;BME280;56232;53.384;-2.732;2023-12-04T07:13:03;99418.05;;;2.74;49.49
69219;BME280;56232;53.384;-2.732;2023-12-04T07:15:29;99421.15;;;2.78;49.54
69219;BME280;56232;53.384;-2.732;2023-12-04T07:17:54;99415.79;;;3.32;49.71
69219;BME280;56232;53.384;-2.732;2023-12-04T07:20:20;99418.39;;;3.16;49.98
69219;BME280;56232;53.384;-2.732;2023-12-04T07:22:46;99418.00;;;2.66;49.81
69219;BME280;56232;53.384;-2.732;2023-12-04T07:25:12;99419.13;;;2.67;49.88
69219;BME280;56232;53.384;-2.732;2023-12-04T07:27:37;99421.87;;;2.64;49.95
69219;BME280;56232;53.384;-2.732;2023-12-04T07:30:03;99418.55;;;2.58;49.92
69219;BME280;56232;53.384;-2.732;2023-12-04T07:32:28;99419.67;;;2.64;49.99
69219;BME280;56232;53.384;-2.732;2023-12-04T07:34:54;99416.74;;;2.93;49.90
69219;BME280;56232;53.384;-2.732;2023-12-04T07:37:20;99414.96;;;3.12;49.54
69219;BME280;56232;53.384;-2.732;2023-12-04T07:39:46;99413.95;;;2.98;49.31
69219;BME280;56232;53.384;-2.732;2023-12-04T07:42:11;99415.53;;;2.90;49.38
69219;BME280;56232;53.384;-2.732;2023-12-04T07:44:37;99418.48;;;3.00;49.62
69219;BME280;56232;53.384;-2.732;2023-12-04T07:47:03;99417.79;;;4.14;49.29
69219;BME280;56232;53.384;-2.732;2023-12-04T07:49:29;99418.30;;;2.75;49.41
69219;BME280;56232;53.384;-2.732;2023-12-04T07:51:54;99416.29;;;2.64;49.67
69219;BME280;56232;53.384;-2.732;2023-12-04T07:54:20;99416.27;;;2.67;49.59
69219;BME280;56232;53.384;-2.732;2023-12-04T07:56:47;99417.08;;;2.62;50.08
69219;BME280;56232;53.384;-2.732;2023-12-04T07:59:11;99417.81;;;2.93;50.27
69219;BME280;56232;53.384;-2.732;2023-12-04T08:01:36;99415.92;;;3.19;49.86
69219;BME280;56232;53.384;-2.732;2023-12-04T08:04:02;99419.24;;;3.22;49.57
69219;BME280;56232;53.384;-2.732;2023-12-04T08:06:28;99421.57;;;3.10;49.76
69219;BME280;56232;53.384;-2.732;2023-12-04T08:08:54;99428.07;;;3.07;49.38
69219;BME280;56232;53.384;-2.732;2023-12-04T08:11:20;99429.35;;;2.94;49.79
69219;BME280;56232;53.384;-2.732;2023-12-04T08:13:45;99429.87;;;3.03;50.01
69219;BME280;56232;53.384;-2.732;2023-12-04T08:16:14;99429.46;;;3.12;49.84
69219;BME280;56232;53.384;-2.732;2023-12-04T08:18:36;99426.08;;;3.16;49.76
69219;BME280;56232;53.384;-2.732;2023-12-04T08:21:03;99424.63;;;3.14;49.83
69219;BME280;56232;53.384;-2.732;2023-12-04T08:23:28;99423.58;;;3.31;49.55
69219;BME280;56232;53.384;-2.732;2023-12-04T08:25:54;99425.21;;;3.26;49.70
69219;BME280;56232;53.384;-2.732;2023-12-04T08:28:20;99427.85;;;3.30;49.72
69219;BME280;56232;53.384;-2.732;2023-12-04T08:30:45;99424.60;;;3.39;49.47
69219;BME280;56232;53.384;-2.732;2023-12-04T08:33:11;99427.71;;;3.42;49.56
69219;BME280;56232;53.384;-2.732;2023-12-04T08:35:37;99425.40;;;3.36;49.22
69219;BME280;56232;53.384;-2.732;2023-12-04T08:38:02;99424.70;;;3.34;49.30
69219;BME280;56232;53.384;-2.732;2023-12-04T08:40:28;99427.21;;;2.82;49.63
69219;BME280;56232;53.384;-2.732;2023-12-04T08:42:54;99428.28;;;3.71;49.46
69219;BME280;56232;53.384;-2.732;2023-12-04T08:45:19;99429.28;;;3.13;49.86
69219;BME280;56232;53.384;-2.732;2023-12-04T08:47:45;99425.52;;;3.28;49.85
69219;BME280;56232;53.384;-2.732;2023-12-04T08:50:10;99425.06;;;3.38;49.88
69219;BME280;56232;53.384;-2.732;2023-12-04T08:52:35;99427.87;;;3.11;49.72
69219;BME280;56232;53.384;-2.732;2023-12-04T08:55:01;99428.63;;;3.63;49.37
69219;BME280;56232;53.384;-2.732;2023-12-04T08:57:27;99432.39;;;3.48;49.70
69219;BME280;56232;53.384;-2.732;2023-12-04T08:59:53;99431.48;;;3.15;49.96
69219;BME280;56232;53.384;-2.732;2023-12-04T09:02:19;99428.18;;;4.02;49.84
69219;BME280;56232;53.384;-2.732;2023-12-04T09:04:44;99427.45;;;3.69;49.15
69219;BME280;56232;53.384;-2.732;2023-12-04T09:07:10;99429.46;;;3.97;49.31
69219;BME280;56232;53.384;-2.732;2023-12-04T09:09:36;99431.00;;;3.42;49.41
69219;BME280;56232;53.384;-2.732;2023-12-04T09:12:02;99424.94;;;3.95;49.39
69219;BME280;56232;53.384;-2.732;2023-12-04T09:14:27;99429.89;;;3.89;49.42
69219;BME280;56232;53.384;-2.732;2023-12-04T09:16:54;99431.98;;;2.96;49.58
69219;BME280;56232;53.384;-2.732;2023-12-04T09:19:19;99430.02;;;3.45;49.51
69219;BME280;56232;53.384;-2.732;2023-12-04T09:21:44;99429.77;;;4.08;49.56
69219;BME280;56232;53.384;-2.732;2023-12-04T09:24:10;99428.90;;;3.80;49.72
69219;BME280;56232;53.384;-2.732;2023-12-04T09:26:35;99433.36;;;4.40;49.64
69219;BME280;56232;53.384;-2.732;2023-12-04T09:29:06;99430.32;;;3.44;49.19
69219;BME280;56232;53.384;-2.732;2023-12-04T09:31:27;99429.99;;;3.99;49.49
69219;BME280;56232;53.384;-2.732;2023-12-04T09:33:53;99428.48;;;4.11;49.45
69219;BME280;56232;53.384;-2.732;2023-12-04T09:36:19;99428.00;;;3.56;49.37
69219;BME280;56232;53.384;-2.732;2023-12-04T09:38:44;99423.38;;;4.24;49.72
69219;BME280;56232;53.384;-2.732;2023-12-04T09:41:12;99425.70;;;3.97;49.58
69219;BME280;56232;53.384;-2.732;2023-12-04T09:43:36;99424.57;;;3.94;49.20
69219;BME280;56232;53.384;-2.732;2023-12-04T09:46:02;99428.72;;;4.05;49.53
69219;BME280;56232;53.384;-2.732;2023-12-04T09:48:29;99432.47;;;4.81;49.29
69219;BME280;56232;53.384;-2.732;2023-12-04T09:50:54;99435.05;;;4.39;49.44
69219;BME280;56232;53.384;-2.732;2023-12-04T09:53:20;99435.15;;;4.44;49.43
69219;BME280;56232;53.384;-2.732;2023-12-04T09:55:47;99434.75;;;4.73;48.62
69219;BME280;56232;53.384;-2.732;2023-12-04T09:58:12;99435.54;;;4.86;49.10
69219;BME280;56232;53.384;-2.732;2023-12-04T10:00:37;99437.71;;;5.09;48.63
69219;BME280;56232;53.384;-2.732;2023-12-04T10:03:02;99437.08;;;4.92;48.38
69219;BME280;56232;53.384;-2.732;2023-12-04T10:05:27;99436.35;;;4.88;48.85
69219;BME280;56232;53.384;-2.732;2023-12-04T10:07:53;99439.06;;;5.03;48.61
69219;BME280;56232;53.384;-2.732;2023-12-04T10:10:19;99439.05;;;5.00;48.42
69219;BME280;56232;53.384;-2.732;2023-12-04T10:12:44;99439.17;;;4.35;48.98
69219;BME280;56232;53.384;-2.732;2023-12-04T10:15:11;99439.81;;;4.19;48.50
69219;BME280;56232;53.384;-2.732;2023-12-04T10:17:36;99440.27;;;5.18;48.48
69219;BME280;56232;53.384;-2.732;2023-12-04T10:20:07;99445.22;;;5.32;48.69
69219;BME280;56232;53.384;-2.732;2023-12-04T10:22:27;99447.03;;;4.92;48.78
69219;BME280;56232;53.384;-2.732;2023-12-04T10:24:53;99452.40;;;5.22;49.12
69219;BME280;56232;53.384;-2.732;2023-12-04T10:27:26;99449.01;;;6.22;48.77
69219;BME280;56232;53.384;-2.732;2023-12-04T10:29:46;99447.52;;;5.34;48.45
69219;BME280;56232;53.384;-2.732;2023-12-04T10:32:10;99447.77;;;5.43;48.17
69219;BME280;56232;53.384;-2.732;2023-12-04T10:34:36;99448.73;;;5.28;48.36
69219;BME280;56232;53.384;-2.732;2023-12-04T10:37:03;99446.07;;;5.29;48.33
69219;BME280;56232;53.384;-2.732;2023-12-04T10:39:27;99443.78;;;6.42;48.52
69219;BME280;56232;53.384;-2.732;2023-12-04T10:41:59;99444.32;;;5.51;48.51
69219;BME280;56232;53.384;-2.732;2023-12-04T10:44:19;99441.92;;;5.86;48.49
69219;BME280;56232;53.384;-2.732;2023-12-04T10:46:45;99438.27;;;6.00;48.46
69219;BME280;56232;53.384;-2.732;2023-12-04T10:49:11;99432.75;;;6.28;48.45
69219;BME280;56232;53.384;-2.732;2023-12-04T10:51:36;99434.60;;;6.58;48.45
69219;BME280;56232;53.384;-2.732;2023-12-04T10:54:02;99433.25;;;6.20;47.94
69219;BME280;56232;53.384;-2.732;2023-12-04T10:56:34;99434.12;;;6.12;47.78
69219;BME280;56232;53.384;-2.732;2023-12-04T10:58:53;99435.42;;;6.73;47.90
69219;BME280;56232;53.384;-2.732;2023-12-04T11:01:19;99433.42;;;6.45;47.98
69219;BME280;56232;53.384;-2.732;2023-12-04T11:03:44;99435.14;;;5.87;47.49
69219;BME280;56232;53.384;-2.732;2023-12-04T11:06:12;99432.20;;;6.23;47.73
69219;BME280;56232;53.384;-2.732;2023-12-04T11:08:36;99434.17;;;6.12;47.68
69219;BME280;56232;53.384;-2.732;2023-12-04T11:11:03;99432.41;;;6.13;48.19
69219;BME280;56232;53.384;-2.732;2023-12-04T11:13:28;99428.22;;;6.23;47.96
69219;BME280;56232;53.384;-2.732;2023-12-04T11:15:56;99428.19;;;6.34;48.13
69219;BME280;56232;53.384;-2.732;2023-12-04T11:18:22;99421.97;;;5.75;48.30
69219;BME280;56232;53.384;-2.732;2023-12-04T11:20:50;99415.88;;;6.33;47.74
69219;BME280;56232;53.384;-2.732;2023-12-04T11:23:10;99421.32;;;6.50;48.08
69219;BME280;56232;53.384;-2.732;2023-12-04T11:25:35;99420.05;;;6.65;47.85
69219;BME280;56232;53.384;-2.732;2023-12-04T11:28:01;99421.62;;;6.45;47.91
69219;BME280;56232;53.384;-2.732;2023-12-04T11:30:26;99421.57;;;6.87;48.31
69219;BME280;56232;53.384;-2.732;2023-12-04T11:32:54;99420.65;;;6.75;48.68
69219;BME280;56232;53.384;-2.732;2023-12-04T11:35:20;99421.65;;;6.82;48.15
69219;BME280;56232;53.384;-2.732;2023-12-04T11:37:43;99422.30;;;6.16;47.88
69219;BME280;56232;53.384;-2.732;2023-12-04T11:40:12;99420.69;;;6.21;48.47
69219;BME280;56232;53.384;-2.732;2023-12-04T11:42:35;99417.54;;;6.00;48.42
69219;BME280;56232;53.384;-2.732;2023-12-04T11:45:00;99416.22;;;6.76;48.65
69219;BME280;56232;53.384;-2.732;2023-12-04T11:47:28;99412.48;;;6.15;48.36
69219;BME280;56232;53.384;-2.732;2023-12-04T11:49:51;99410.02;;;5.98;48.75
69219;BME280;56232;53.384;-2.732;2023-12-04T11:59:37;99406.48;;;6.35;48.86
69219;BME280;56232;53.384;-2.732;2023-12-04T12:02:00;99406.63;;;5.95;48.68
69219;BME280;56232;53.384;-2.732;2023-12-04T12:04:26;99410.21;;;5.95;48.65
69219;BME280;56232;53.384;-2.732;2023-12-04T12:06:52;99408.78;;;6.88;48.69
69219;BME280;56232;53.384;-2.732;2023-12-04T12:09:18;99411.69;;;6.33;49.22
69219;BME280;56232;53.384;-2.732;2023-12-04T12:11:43;99414.13;;;6.49;48.91
69219;BME280;56232;53.384;-2.732;2023-12-04T12:14:08;99414.25;;;6.10;48.53
69219;BME280;56232;53.384;-2.732;2023-12-04T12:16:33;99414.71;;;6.45;48.51
69219;BME280;56232;53.384;-2.732;2023-12-04T12:19:01;99415.99;;;5.83;48.55
69219;BME280;56232;53.384;-2.732;2023-12-04T12:21:26;99419.10;;;6.68;48.29
69219;BME280;56232;53.384;-2.732;2023-12-04T12:23:50;99424.50;;;6.38;48.90
69219;BME280;56232;53.384;-2.732;2023-12-04T12:26:17;99425.70;;;6.21;49.05
69219;BME280;56232;53.384;-2.732;2023-12-04T12:28:42;99426.59;;;6.47;49.29
69219;BME280;56232;53.384;-2.732;2023-12-04T12:31:08;99421.63;;;5.93;48.69
69219;BME280;56232;53.384;-2.732;2023-12-04T12:33:33;99425.75;;;5.46;49.00
69219;BME280;56232;53.384;-2.732;2023-12-04T12:36:00;99426.68;;;5.97;48.96
69219;BME280;56232;53.384;-2.732;2023-12-04T12:38:25;99429.52;;;6.59;48.81
69219;BME280;56232;53.384;-2.732;2023-12-04T12:40:51;99429.33;;;6.55;48.84
69219;BME280;56232;53.384;-2.732;2023-12-04T12:43:20;99426.34;;;6.03;48.70
69219;BME280;56232;53.384;-2.732;2023-12-04T12:45:42;99428.37;;;6.09;48.16
69219;BME280;56232;53.384;-2.732;2023-12-04T12:48:10;99423.35;;;6.50;48.55
69219;BME280;56232;53.384;-2.732;2023-12-04T12:50:33;99422.50;;;6.37;48.60
69219;BME280;56232;53.384;-2.732;2023-12-04T12:53:01;99421.73;;;6.39;48.86
69219;BME280;56232;53.384;-2.732;2023-12-04T12:55:24;99420.60;;;5.83;48.30
69219;BME280;56232;53.384;-2.732;2023-12-04T12:57:50;99423.15;;;5.62;48.90